createdAt,value
2022-10-22T00:02:21.558Z,99377.88
2022-10-22T00:04:50.894Z,99381.44
2022-10-22T00:07:18.549Z,99380.19
2022-10-22T00:09:46.067Z,99397.06
2022-10-22T00:12:15.310Z,99404.63
2022-10-22T00:14:42.889Z,99394.94
2022-10-22T00:17:11.483Z,99396.84
2022-10-22T00:19:39.776Z,99398.94
2022-10-22T00:22:08.097Z,99399.59
2022-10-22T00:24:37.062Z,99399.34
2022-10-22T00:27:05.554Z,99401.25
2022-10-22T00:29:33.167Z,99393.03
2022-10-22T00:32:00.712Z,99387.97
2022-10-22T00:34:27.983Z,99391.38
2022-10-22T00:36:55.108Z,99400.81
2022-10-22T00:39:24.976Z,99389.66
2022-10-22T00:41:53.891Z,99379.97
2022-10-22T00:44:58.514Z,99368.81
2022-10-22T00:47:28.602Z,99362.25
2022-10-22T00:49:57.262Z,99367.13
2022-10-22T00:52:24.847Z,99361.84
2022-10-22T00:54:52.376Z,99361.25
2022-10-22T00:57:20.574Z,99355.31
2022-10-22T00:59:48.559Z,99348.56
2022-10-22T01:02:19.163Z,99355.31
2022-10-22T01:04:46.216Z,99349.22
2022-10-22T01:07:21.791Z,99349.22
2022-10-22T01:10:13.220Z,99348.38
2022-10-22T01:12:54.752Z,99347.09
2022-10-22T01:15:36.040Z,99339.75
2022-10-22T01:18:09.800Z,99334.47
2022-10-22T01:20:55.106Z,99337.41
2022-10-22T01:23:33.460Z,99340.81
2022-10-22T01:26:27.558Z,99336.59
2022-10-22T01:29:06.937Z,99344.41
2022-10-22T01:31:41.396Z,99344.81
2022-10-22T01:34:11.773Z,99346.28
2022-10-22T01:36:39.453Z,99356.84
2022-10-22T01:39:08.312Z,99353.88
2022-10-22T01:41:35.720Z,99349.22
2022-10-22T01:44:02.811Z,99356.63
2022-10-22T01:46:29.851Z,99368.88
2022-10-22T01:49:17.730Z,99370.75
2022-10-22T01:51:44.666Z,99374.31
2022-10-22T01:54:28.838Z,99375.56
2022-10-22T01:57:14.773Z,99384.88
2022-10-22T02:00:01.616Z,99388.66
2022-10-22T02:02:38.942Z,99394.97
2022-10-22T02:05:15.129Z,99395.63
2022-10-22T02:07:49.076Z,99408.91
2022-10-22T02:10:18.289Z,99420.69
2022-10-22T02:12:50.583Z,99420.50
2022-10-22T02:15:20.614Z,99411.00
2022-10-22T02:17:49.698Z,99417.13
2022-10-22T02:20:22.317Z,99420.50
2022-10-22T02:22:49.724Z,99419.69
2022-10-22T02:25:16.957Z,99409.34
2022-10-22T02:27:51.569Z,99415.44
2022-10-22T02:30:21.052Z,99408.91
2022-10-22T02:32:53.896Z,99412.94
2022-10-22T02:35:25.709Z,99420.72
2022-10-22T02:37:54.888Z,99411.66
2022-10-22T02:40:22.646Z,99412.47
2022-10-22T02:42:50.956Z,99414.81
2022-10-22T02:45:19.553Z,99426.19
2022-10-22T02:47:46.656Z,99428.50
2022-10-22T02:50:13.811Z,99434.41
2022-10-22T02:52:41.313Z,99437.16
2022-10-22T02:55:08.809Z,99440.94
2022-10-22T02:57:35.875Z,99459.53
2022-10-22T03:00:05.299Z,99457.22
2022-10-22T03:02:32.356Z,99452.38
2022-10-22T03:04:59.479Z,99460.41
2022-10-22T03:07:26.506Z,99468.22
2022-10-22T03:09:53.527Z,99473.91
2022-10-22T03:12:20.581Z,99479.38
2022-10-22T03:14:47.600Z,99480.25
2022-10-22T03:17:14.723Z,99469.28
2022-10-22T03:19:41.693Z,99466.13
2022-10-22T03:22:19.461Z,99459.56
2022-10-22T03:24:50.524Z,99473.91
2022-10-22T03:27:19.982Z,99462.94
2022-10-22T03:29:47.828Z,99459.16
2022-10-22T03:32:14.827Z,99466.75
2022-10-22T03:34:41.816Z,99472.03
2022-10-22T03:37:08.833Z,99477.28
2022-10-22T03:39:37.123Z,99481.72
2022-10-22T03:42:06.555Z,99486.34
2022-10-22T03:44:35.422Z,99472.63
2022-10-22T03:47:02.853Z,99453.66
2022-10-22T03:49:30.047Z,99464.63
2022-10-22T03:51:57.048Z,99468.41
2022-10-22T03:54:24.066Z,99465.00
2022-10-22T03:56:51.041Z,99466.69
2022-10-22T03:59:18.219Z,99473.25
2022-10-22T04:01:45.248Z,99481.25
2022-10-22T04:04:12.240Z,99483.16
2022-10-22T04:06:39.230Z,99487.16
2022-10-22T04:09:06.324Z,99497.28
2022-10-22T04:11:33.374Z,99489.25
2022-10-22T04:14:00.401Z,99492.84
2022-10-22T04:16:29.991Z,99476.41
2022-10-22T04:18:58.160Z,99464.38
2022-10-22T04:21:25.788Z,99475.53
2022-10-22T04:23:53.407Z,99466.91
2022-10-22T04:26:21.296Z,99461.41
2022-10-22T04:28:50.334Z,99469.00
2022-10-22T04:31:20.012Z,99479.53
2022-10-22T04:33:47.676Z,99483.31
2022-10-22T04:36:17.221Z,99482.25
2022-10-22T04:38:47.273Z,99471.94
2022-10-22T04:41:19.528Z,99473.41
2022-10-22T04:43:47.517Z,99475.50
2022-10-22T04:46:17.711Z,99480.78
2022-10-22T04:48:45.619Z,99486.47
2022-10-22T04:51:15.726Z,99488.16
2022-10-22T04:53:43.836Z,99484.38
2022-10-22T04:56:19.640Z,99485.00
2022-10-22T04:58:48.589Z,99483.31
2022-10-22T05:01:24.216Z,99486.69
2022-10-22T05:03:53.088Z,99482.91
2022-10-22T05:06:21.006Z,99477.63
2022-10-22T05:08:48.826Z,99489.88
2022-10-22T05:11:19.073Z,99495.34
2022-10-22T05:13:46.200Z,99502.09
2022-10-22T05:16:13.724Z,99505.06
2022-10-22T05:18:43.191Z,99502.09
2022-10-22T05:21:12.436Z,99498.72
2022-10-22T05:23:39.546Z,99510.75
2022-10-22T05:26:08.361Z,99506.56
2022-10-22T05:28:36.291Z,99500.22
2022-10-22T05:31:05.232Z,99501.53
2022-10-22T05:33:33.217Z,99515.44
2022-10-22T05:36:02.038Z,99510.59
2022-10-22T05:38:29.114Z,99511.22
2022-10-22T05:41:10.854Z,99507.66
2022-10-22T05:43:39.620Z,99508.06
2022-10-22T05:46:10.235Z,99508.06
2022-10-22T05:48:38.057Z,99517.38
2022-10-22T05:51:08.893Z,99513.34
2022-10-22T05:53:38.035Z,99517.38
2022-10-22T05:56:08.093Z,99519.91
2022-10-22T05:58:36.894Z,99518.84
2022-10-22T06:01:06.335Z,99528.53
2022-10-22T06:03:33.569Z,99526.47
2022-10-22T06:06:15.971Z,99531.31
2022-10-22T06:08:43.015Z,99535.50
2022-10-22T06:11:10.106Z,99536.78
2022-10-22T06:13:37.146Z,99539.72
2022-10-22T06:16:04.579Z,99542.25
2022-10-22T06:18:33.030Z,99548.81
2022-10-22T06:21:08.635Z,99554.50
2022-10-22T06:23:37.119Z,99560.19
2022-10-22T06:26:05.666Z,99564.00
2022-10-22T06:28:33.412Z,99571.81
2022-10-22T06:31:02.099Z,99580.06
2022-10-22T06:33:31.163Z,99583.66
2022-10-22T06:36:07.671Z,99592.53
2022-10-22T06:38:34.995Z,99599.72
2022-10-22T06:41:07.158Z,99596.75
2022-10-22T06:43:34.152Z,99603.50
2022-10-22T06:46:04.183Z,99610.47
2022-10-22T06:48:31.430Z,99604.59
2022-10-22T06:51:01.940Z,99611.94
2022-10-22T06:53:29.620Z,99620.19
2022-10-22T06:55:56.777Z,99622.53
2022-10-22T06:58:24.227Z,99626.94
2022-10-22T07:01:01.316Z,99632.22
2022-10-22T07:03:28.364Z,99627.59
2022-10-22T07:05:55.414Z,99623.19
2022-10-22T07:08:25.263Z,99632.44
2022-10-22T07:10:52.292Z,99636.06
2022-10-22T07:13:19.325Z,99632.66
2022-10-22T07:15:46.317Z,99646.16
2022-10-22T07:18:13.400Z,99638.38
2022-10-22T07:20:40.410Z,99646.84
2022-10-22T07:23:08.391Z,99641.34
2022-10-22T07:25:35.931Z,99645.16
2022-10-22T07:28:02.926Z,99641.97
2022-10-22T07:30:29.907Z,99646.84
2022-10-22T07:32:56.883Z,99654.66
2022-10-22T07:35:23.900Z,99648.72
2022-10-22T07:37:50.897Z,99653.19
2022-10-22T07:40:17.918Z,99656.75
2022-10-22T07:42:44.888Z,99658.91
2022-10-22T07:45:11.879Z,99664.81
2022-10-22T07:47:39.642Z,99674.53
2022-10-22T07:50:07.256Z,99672.84
2022-10-22T07:52:34.314Z,99680.66
2022-10-22T07:55:01.359Z,99681.34
2022-10-22T07:57:28.345Z,99690.00
2022-10-22T07:59:55.311Z,99690.63
2022-10-22T08:02:22.268Z,99691.69
2022-10-22T08:04:49.305Z,99689.75
2022-10-22T08:07:16.374Z,99692.09
2022-10-22T08:09:43.579Z,99684.69
2022-10-22T08:12:10.638Z,99695.03
2022-10-22T08:14:37.637Z,99685.09
2022-10-22T08:17:04.694Z,99678.50
2022-10-22T08:19:31.779Z,99687.16
2022-10-22T08:21:59.603Z,99693.47
2022-10-22T08:24:28.216Z,99691.56
2022-10-22T08:26:55.241Z,99689.66
2022-10-22T08:29:23.203Z,99697.47
2022-10-22T08:31:50.710Z,99702.56
2022-10-22T08:34:17.689Z,99704.00
2022-10-22T08:36:44.724Z,99697.91
2022-10-22T08:39:12.211Z,99700.00
2022-10-22T08:41:44.964Z,99703.81
2022-10-22T08:44:34.019Z,99696.47
2022-10-22T08:47:26.351Z,99704.72
2022-10-22T08:49:53.858Z,99704.75
2022-10-22T08:52:21.690Z,99702.38
2022-10-22T08:54:59.879Z,99709.31
2022-10-22T08:57:54.989Z,99711.34
2022-10-22T09:00:35.047Z,99709.66
2022-10-22T09:03:17.017Z,99710.59
2022-10-22T09:06:05.086Z,99708.38
2022-10-22T09:08:32.256Z,99707.84
2022-10-22T09:11:06.401Z,99707.19
2022-10-22T09:13:33.462Z,99706.66
2022-10-22T09:16:11.255Z,99712.09
2022-10-22T09:18:59.825Z,99712.31
2022-10-22T09:21:43.524Z,99723.44
2022-10-22T09:24:25.963Z,99716.91
2022-10-22T09:26:56.722Z,99716.28
2022-10-22T09:29:30.883Z,99723.03
2022-10-22T09:31:58.167Z,99723.25
2022-10-22T09:34:25.177Z,99724.09
2022-10-22T09:37:00.135Z,99732.97
2022-10-22T09:39:54.728Z,99734.22
2022-10-22T09:42:22.405Z,99738.53
2022-10-22T09:44:55.535Z,99739.66
2022-10-22T09:47:43.491Z,99745.72
2022-10-22T09:50:19.817Z,99755.78
2022-10-22T09:52:58.430Z,99751.19
2022-10-22T09:55:26.098Z,99756.31
2022-10-22T09:58:00.325Z,99751.50
2022-10-22T10:00:27.932Z,99753.94
2022-10-22T10:02:58.236Z,99754.94
2022-10-22T10:05:32.385Z,99757.28
2022-10-22T10:08:02.431Z,99755.97
2022-10-22T10:10:47.055Z,99760.59
2022-10-22T10:13:36.081Z,99754.78
2022-10-22T10:17:00.807Z,99758.06
2022-10-22T10:19:38.305Z,99763.81
2022-10-22T10:22:17.105Z,99762.72
2022-10-22T10:25:05.798Z,99760.59
2022-10-22T10:27:43.082Z,99752.41
2022-10-22T10:30:15.985Z,99765.66
2022-10-22T10:33:14.981Z,99773.63
2022-10-22T10:35:41.926Z,99771.78
2022-10-22T10:38:31.962Z,99772.63
2022-10-22T10:41:12.015Z,99779.91
2022-10-22T10:43:46.879Z,99768.53
2022-10-22T10:46:37.164Z,99769.34
2022-10-22T10:49:24.314Z,99769.13
2022-10-22T10:52:18.955Z,99760.19
2022-10-22T10:54:48.125Z,99768.09
2022-10-22T10:57:30.276Z,99761.97
2022-10-22T11:00:01.728Z,99758.91
2022-10-22T11:02:53.789Z,99762.16
2022-10-22T11:05:32.707Z,99754.69
2022-10-22T11:08:04.813Z,99752.28
2022-10-22T11:10:41.844Z,99755.81
2022-10-22T11:13:33.319Z,99767.47
2022-10-22T11:16:06.514Z,99747.72
2022-10-22T11:18:41.845Z,99754.38
2022-10-22T11:21:21.138Z,99749.78
2022-10-22T11:23:49.846Z,99769.13
2022-10-22T11:26:44.236Z,99754.69
2022-10-22T11:29:16.228Z,99756.63
2022-10-22T11:31:44.181Z,99755.06
2022-10-22T11:34:33.314Z,99744.63
2022-10-22T11:37:02.561Z,99742.72
2022-10-22T11:39:38.841Z,99751.47
2022-10-22T11:42:19.892Z,99749.06
2022-10-22T11:44:49.336Z,99744.25
2022-10-22T11:47:24.443Z,99738.31
2022-10-22T11:50:15.914Z,99739.53
2022-10-22T11:52:54.734Z,99743.53
2022-10-22T11:55:33.108Z,99740.00
2022-10-22T11:58:06.693Z,99739.34
2022-10-22T12:00:39.457Z,99734.44
2022-10-22T12:03:39.705Z,99732.50
2022-10-22T12:06:09.656Z,99733.94
2022-10-22T12:08:43.852Z,99736.16
2022-10-22T12:11:10.851Z,99727.09
2022-10-22T12:14:03.041Z,99723.69
2022-10-22T12:16:54.806Z,99728.75
2022-10-22T12:19:22.729Z,99723.22
2022-10-22T12:21:58.573Z,99722.19
2022-10-22T12:24:30.329Z,99724.84
2022-10-22T12:26:57.368Z,99726.91
2022-10-22T12:29:24.460Z,99723.78
2022-10-22T12:31:51.418Z,99727.75
2022-10-22T12:34:23.095Z,99721.25
2022-10-22T12:37:05.220Z,99726.91
2022-10-22T12:39:32.042Z,99730.03
2022-10-22T12:41:58.896Z,99725.47
2022-10-22T12:44:25.857Z,99727.97
2022-10-22T12:46:56.835Z,99723.97
2022-10-22T12:49:39.044Z,99711.72
2022-10-22T12:52:13.387Z,99718.25
2022-10-22T12:54:41.306Z,99721.25
2022-10-22T12:57:15.344Z,99716.34
2022-10-22T12:59:48.810Z,99716.69
2022-10-22T13:02:25.565Z,99715.97
2022-10-22T13:05:14.987Z,99713.19
2022-10-22T13:07:46.671Z,99710.69
2022-10-22T13:10:16.796Z,99700.69
2022-10-22T13:12:48.860Z,99719.16
2022-10-22T13:15:27.759Z,99711.91
2022-10-22T13:18:15.747Z,99721.53
2022-10-22T13:21:00.947Z,99716.34
2022-10-22T13:23:29.976Z,99719.47
2022-10-22T13:26:12.227Z,99717.69
2022-10-22T13:28:40.036Z,99711.78
2022-10-22T13:31:17.152Z,99715.03
2022-10-22T13:33:50.387Z,99722.84
2022-10-22T13:36:17.985Z,99708.28
2022-10-22T13:38:45.546Z,99727.06
2022-10-22T13:41:20.913Z,99721.41
2022-10-22T13:43:48.048Z,99725.03
2022-10-22T13:46:15.560Z,99725.03
2022-10-22T13:48:43.807Z,99727.31
2022-10-22T13:51:18.169Z,99728.75
2022-10-22T13:53:46.982Z,99731.03
2022-10-22T13:56:15.765Z,99736.28
2022-10-22T13:58:44.597Z,99724.16
2022-10-22T14:01:31.845Z,99734.94
2022-10-22T14:04:00.426Z,99742.50
2022-10-22T14:06:31.103Z,99732.16
2022-10-22T14:09:00.758Z,99734.63
2022-10-22T14:11:28.231Z,99733.63
2022-10-22T14:13:55.171Z,99737.81
2022-10-22T14:16:28.172Z,99727.84
2022-10-22T14:18:55.980Z,99728.09
2022-10-22T14:21:23.104Z,99728.41
2022-10-22T14:23:50.079Z,99724.50
2022-10-22T14:26:25.424Z,99725.19
2022-10-22T14:34:15.456Z,99732.63
2022-10-22T14:36:42.618Z,99739.34
2022-10-22T14:39:09.572Z,99732.19
2022-10-22T14:41:36.586Z,99731.38
2022-10-22T14:44:03.839Z,99732.06
2022-10-22T14:46:30.849Z,99739.72
2022-10-22T14:48:57.941Z,99745.22
2022-10-22T14:51:25.076Z,99732.97
2022-10-22T14:53:52.081Z,99743.25
2022-10-22T14:56:19.694Z,99743.94
2022-10-22T14:58:46.892Z,99744.25
2022-10-22T15:01:14.031Z,99745.94
2022-10-22T15:03:41.323Z,99747.53
2022-10-22T15:06:08.445Z,99749.38
2022-10-22T15:08:35.509Z,99743.50
2022-10-22T15:11:05.662Z,99750.16
2022-10-22T15:13:33.453Z,99753.00
2022-10-22T15:16:00.887Z,99759.03
2022-10-22T15:18:28.665Z,99757.19
2022-10-22T15:21:00.298Z,99758.75
2022-10-22T15:23:27.654Z,99757.34
2022-10-22T15:26:00.560Z,99754.44
2022-10-22T15:28:27.621Z,99757.25
2022-10-22T15:31:13.269Z,99760.97
2022-10-22T15:33:41.815Z,99762.47
2022-10-22T15:36:13.615Z,99765.69
2022-10-22T15:38:40.592Z,99762.75
2022-10-22T15:41:09.617Z,99756.63
2022-10-22T15:43:36.714Z,99766.38
2022-10-22T15:46:15.232Z,99762.13
2022-10-22T15:48:42.552Z,99776.31
2022-10-22T15:51:17.970Z,99776.31
2022-10-22T15:53:52.293Z,99786.28
2022-10-22T15:56:19.326Z,99778.94
2022-10-22T15:58:46.410Z,99783.59
2022-10-22T16:01:14.399Z,99785.31
2022-10-22T16:03:41.939Z,99793.38
2022-10-22T16:06:09.583Z,99787.03
2022-10-22T16:08:37.309Z,99790.00
2022-10-22T16:11:04.892Z,99792.09
2022-10-22T16:13:32.430Z,99794.00
2022-10-22T16:16:05.472Z,99789.78
2022-10-22T16:18:32.589Z,99794.78
2022-10-22T16:20:59.532Z,99796.50
2022-10-22T16:23:26.568Z,99805.56
2022-10-22T16:25:53.525Z,99810.66
2022-10-22T16:28:20.582Z,99806.63
2022-10-22T16:30:47.646Z,99811.25
2022-10-22T16:33:14.613Z,99818.41
2022-10-22T16:35:42.577Z,99814.84
2022-10-22T16:38:10.672Z,99819.06
2022-10-22T16:40:38.186Z,99815.47
2022-10-22T16:43:05.877Z,99817.81
2022-10-22T16:45:33.104Z,99819.09
2022-10-22T16:48:00.176Z,99820.78
2022-10-22T16:50:27.368Z,99824.78
2022-10-22T16:52:54.383Z,99820.34
2022-10-22T16:55:21.380Z,99824.56
2022-10-22T16:57:51.718Z,99830.47
2022-10-22T17:00:19.579Z,99830.69
2022-10-22T17:02:51.526Z,99830.69
2022-10-22T17:05:18.563Z,99827.72
2022-10-22T17:07:45.567Z,99834.28
2022-10-22T17:10:12.823Z,99826.06
2022-10-22T17:12:40.459Z,99830.28
2022-10-22T17:15:08.170Z,99825.63
2022-10-22T17:17:35.215Z,99828.78
2022-10-22T17:20:02.391Z,99827.88
2022-10-22T17:22:29.360Z,99829.53
2022-10-22T17:25:17.202Z,99837.34
2022-10-22T17:27:44.707Z,99834.53
2022-10-22T17:30:16.743Z,99831.28
2022-10-22T17:32:44.480Z,99830.59
2022-10-22T17:35:14.797Z,99847.22
2022-10-22T17:37:42.057Z,99842.66
2022-10-22T17:40:10.065Z,99844.06
2022-10-22T17:42:37.034Z,99849.28
2022-10-22T17:45:04.380Z,99847.72
2022-10-22T17:47:31.377Z,99851.47
2022-10-22T17:49:58.410Z,99861.13
2022-10-22T17:52:25.480Z,99867.19
2022-10-22T17:54:52.456Z,99866.94
2022-10-22T17:57:19.444Z,99877.22
2022-10-22T17:59:46.398Z,99874.00
2022-10-22T18:02:16.011Z,99873.53
2022-10-22T18:04:43.598Z,99884.22
2022-10-22T18:07:10.593Z,99878.28
2022-10-22T18:09:39.140Z,99881.78
2022-10-22T18:12:06.564Z,99884.44
2022-10-22T18:14:33.614Z,99880.81
2022-10-22T18:17:02.269Z,99880.81
2022-10-22T18:19:29.921Z,99893.75
2022-10-22T18:21:57.082Z,99889.69
2022-10-22T18:24:24.227Z,99888.38
2022-10-22T18:26:51.284Z,99885.38
2022-10-22T18:29:19.476Z,99887.84
2022-10-22T18:31:47.852Z,99889.09
2022-10-22T18:34:16.656Z,99892.38
2022-10-22T18:36:46.053Z,99889.19
2022-10-22T18:39:15.041Z,99885.97
2022-10-22T18:41:42.911Z,99884.47
2022-10-22T18:44:14.109Z,99883.53
2022-10-22T18:46:41.263Z,99895.50
2022-10-22T18:49:08.589Z,99889.38
2022-10-22T18:51:36.107Z,99894.59
2022-10-22T18:54:05.784Z,99896.16
2022-10-22T18:56:46.278Z,99890.59
2022-10-22T18:59:20.779Z,99899.16
2022-10-22T19:01:48.023Z,99890.31
2022-10-22T19:04:15.340Z,99899.25
2022-10-22T19:06:45.302Z,99900.75
2022-10-22T19:09:14.804Z,99898.00
2022-10-22T19:11:43.588Z,99905.56
2022-10-22T19:14:10.658Z,99899.53
2022-10-22T19:16:37.857Z,99905.94
2022-10-22T19:19:06.913Z,99909.63
2022-10-22T19:21:34.526Z,99913.06
2022-10-22T19:24:02.054Z,99921.25
2022-10-22T19:26:30.696Z,99926.38
2022-10-22T19:28:58.730Z,99927.75
2022-10-22T19:31:27.301Z,99915.28
2022-10-22T19:33:54.287Z,99911.59
2022-10-22T19:36:22.160Z,99905.75
2022-10-22T19:38:49.212Z,99900.94
2022-10-22T19:41:18.743Z,99900.47
2022-10-22T19:43:48.920Z,99896.22
2022-10-22T19:46:16.469Z,99891.41
2022-10-22T19:51:31.878Z,99897.63
2022-10-22T19:54:01.185Z,99896.13
2022-10-22T19:56:28.837Z,99902.41
2022-10-22T19:58:56.394Z,99905.16
2022-10-22T20:01:24.099Z,99905.84
2022-10-22T20:03:52.089Z,99908.47
2022-10-22T20:06:19.675Z,99905.63
2022-10-22T20:08:46.814Z,99913.81
2022-10-22T20:11:20.305Z,99914.88
2022-10-22T20:13:51.180Z,99909.94
2022-10-22T20:16:22.288Z,99911.81
2022-10-22T20:18:49.556Z,99918.31
2022-10-22T20:21:18.133Z,99920.88
2022-10-22T20:23:46.419Z,99925.31
2022-10-22T20:26:13.687Z,99925.59
2022-10-22T20:28:40.774Z,99922.50
2022-10-22T20:31:15.445Z,99929.97
2022-10-22T20:33:42.413Z,99932.13
2022-10-22T20:36:15.971Z,99935.72
2022-10-22T20:38:43.032Z,99928.19
2022-10-22T20:41:12.576Z,99942.53
2022-10-22T20:43:39.690Z,99931.09
2022-10-22T20:46:07.676Z,99933.81
2022-10-22T20:48:34.666Z,99942.03
2022-10-22T20:51:01.643Z,99943.56
2022-10-22T20:53:28.607Z,99941.56
2022-10-22T20:55:58.774Z,99941.84
2022-10-22T20:58:38.624Z,99937.25
2022-10-22T21:01:06.014Z,99938.56
2022-10-22T21:06:05.789Z,99946.19
2022-10-22T21:08:32.788Z,99944.31
2022-10-22T21:10:59.800Z,99941.78
2022-10-22T21:13:26.825Z,99946.19
2022-10-22T21:15:53.793Z,99945.56
2022-10-22T21:18:20.776Z,99935.25
2022-10-22T21:20:47.731Z,99934.63
2022-10-22T21:23:14.739Z,99941.97
2022-10-22T21:25:43.389Z,99943.19
2022-10-22T21:28:11.084Z,99939.91
2022-10-22T21:30:44.684Z,99939.03
2022-10-22T21:33:11.655Z,99946.97
2022-10-22T21:35:38.725Z,99930.19
2022-10-22T21:38:05.835Z,99926.59
2022-10-22T21:40:32.799Z,99930.66
2022-10-22T21:42:59.797Z,99914.31
2022-10-22T21:45:26.920Z,99913.28
2022-10-22T21:47:53.921Z,99913.34
2022-10-22T21:50:20.888Z,99916.00
2022-10-22T21:52:47.928Z,99926.31
2022-10-22T21:55:14.893Z,99922.72
2022-10-22T21:57:42.143Z,99918.28
2022-10-22T22:00:10.984Z,99920.16
2022-10-22T22:02:46.070Z,99914.41
2022-10-22T22:05:13.069Z,99904.50
2022-10-22T22:07:40.044Z,99906.78
2022-10-22T22:10:07.551Z,99908.81
2022-10-22T22:12:34.611Z,99914.75
2022-10-22T22:15:01.626Z,99917.91
2022-10-22T22:17:28.611Z,99916.00
2022-10-22T22:19:55.621Z,99913.56
2022-10-22T22:22:22.958Z,99912.44
2022-10-22T22:24:49.938Z,99918.53
2022-10-22T22:27:16.936Z,99913.47
2022-10-22T22:29:43.984Z,99914.88
2022-10-22T22:32:10.972Z,99911.00
2022-10-22T22:34:37.957Z,99915.13
2022-10-22T22:37:06.922Z,99906.13
2022-10-22T22:39:33.996Z,99922.53
2022-10-22T22:42:01.039Z,99917.75
2022-10-22T22:44:28.077Z,99924.63
2022-10-22T22:46:55.024Z,99927.16
2022-10-22T22:49:22.022Z,99926.19
2022-10-22T22:51:49.353Z,99919.75
2022-10-22T22:54:16.371Z,99927.75
2022-10-22T22:56:43.345Z,99925.38
2022-10-22T22:59:10.696Z,99924.56
2022-10-22T23:01:38.943Z,99924.75
2022-10-22T23:04:15.280Z,99919.63
2022-10-22T23:06:42.833Z,99910.09
2022-10-22T23:09:12.038Z,99914.03
2022-10-22T23:11:40.877Z,99916.97
2022-10-22T23:14:10.392Z,99906.72
2022-10-22T23:16:41.520Z,99897.47
2022-10-22T23:19:08.556Z,99894.28
2022-10-22T23:21:39.328Z,99891.34
2022-10-22T23:24:10.806Z,99891.72
2022-10-22T23:26:40.915Z,99894.28
2022-10-22T23:29:11.935Z,99889.69
2022-10-22T23:31:39.321Z,99894.34
2022-10-22T23:34:07.232Z,99893.81
2022-10-22T23:36:35.882Z,99883.03
2022-10-22T23:39:05.856Z,99880.41
2022-10-22T23:41:33.163Z,99872.94
2022-10-22T23:44:00.575Z,99876.03
2022-10-22T23:46:27.842Z,99882.88
2022-10-22T23:48:54.799Z,99876.94
2022-10-22T23:51:22.560Z,99874.38
2022-10-22T23:53:58.691Z,99864.25
2022-10-22T23:56:27.599Z,99869.72
2022-10-22T23:58:55.662Z,99860.84
